Weather at Leesburg Executive Airport

Public forecast

Using degrees Fahrenheit for public forecast. Weather courtesy of forecast.io.

Current aviation weather report (METAR) for Leesburg Executive Airport

Retrieved 2020/09/30 17:35 UTC (6 minutes ago):

KJYO 301735Z AUTO 26010G15KT 10SM CLR 18/08 A2986 RMK AO2

Closest aviation forecast (TAF) to Leesburg Executive Airport

Closest forecast is Washington Dulles International Airport, 9.3 nm (17.3 km) SSE. Retrieved 2020/09/30 12:30 UTC (5 hours ago):

TAF KIAD 301129Z 3012/0118 22007KT P6SM FEW250 FM301500 26011G19KT P6SM FEW250 FM302300 20005KT P6SM SKC FM011500 28004KT P6SM FEW090 SCT250